createdAt,value
2024-05-09T00:00:57.742Z,8.66
2024-05-09T00:01:57.739Z,8.61
2024-05-09T00:02:57.749Z,8.52
2024-05-09T00:03:57.745Z,8.53
2024-05-09T00:04:57.837Z,8.56
2024-05-09T00:05:57.750Z,8.55
2024-05-09T00:06:57.669Z,8.45
2024-05-09T00:07:58.238Z,8.56
2024-05-09T00:08:57.646Z,8.49
2024-05-09T00:09:57.639Z,8.58
2024-05-09T00:10:57.665Z,8.49
2024-05-09T00:11:57.749Z,8.51
2024-05-09T00:12:57.643Z,8.58
2024-05-09T00:13:57.646Z,8.64
2024-05-09T00:14:57.603Z,8.56
2024-05-09T00:15:57.601Z,8.58
2024-05-09T00:16:57.616Z,8.55
2024-05-09T00:17:57.760Z,8.56
2024-05-09T00:18:57.648Z,8.53
2024-05-09T00:19:57.614Z,8.51
2024-05-09T00:20:57.663Z,8.38
2024-05-09T00:21:57.563Z,8.49
2024-05-09T00:22:57.605Z,8.42
2024-05-09T00:23:57.534Z,8.45
2024-05-09T00:24:57.525Z,8.48
2024-05-09T00:25:57.548Z,8.48
2024-05-09T00:26:57.509Z,8.44
2024-05-09T00:27:57.544Z,8.37
2024-05-09T00:28:57.529Z,8.38
2024-05-09T00:29:57.487Z,8.42
2024-05-09T00:30:57.487Z,8.42
2024-05-09T00:31:57.639Z,8.45
2024-05-09T00:32:57.639Z,8.36
2024-05-09T00:33:57.772Z,8.37
2024-05-09T00:34:57.493Z,8.45
2024-05-09T00:35:57.440Z,8.38
2024-05-09T00:36:57.458Z,8.33
2024-05-09T00:37:57.483Z,8.34
2024-05-09T00:38:57.434Z,8.36
2024-05-09T00:39:57.500Z,8.27
2024-05-09T00:40:58.447Z,8.30
2024-05-09T00:41:57.391Z,8.18
2024-05-09T00:42:57.415Z,8.19
2024-05-09T00:43:57.472Z,8.10
2024-05-09T00:44:57.365Z,8.03
2024-05-09T00:45:57.381Z,8.05
2024-05-09T00:46:57.388Z,8.08
2024-05-09T00:47:57.598Z,8.03
2024-05-09T00:48:57.494Z,7.98
2024-05-09T00:49:57.350Z,8.08
2024-05-09T00:50:57.376Z,8.06
2024-05-09T00:51:57.313Z,8.03
2024-05-09T00:52:57.368Z,8.10
2024-05-09T00:53:57.307Z,8.03
2024-05-09T00:54:57.289Z,7.93
2024-05-09T00:55:57.286Z,8.09
2024-05-09T00:56:57.275Z,8.10
2024-05-09T00:57:57.284Z,8.00
2024-05-09T00:58:57.328Z,8.09
2024-05-09T00:59:57.247Z,8.03
2024-05-09T01:00:57.338Z,8.10
2024-05-09T01:01:57.327Z,7.94
2024-05-09T01:02:57.303Z,7.98
2024-05-09T01:03:57.350Z,8.00
2024-05-09T01:04:57.295Z,7.98
2024-05-09T01:05:57.401Z,8.00
2024-05-09T01:06:57.186Z,7.95
2024-05-09T01:07:57.234Z,8.05
2024-05-09T01:08:57.179Z,7.94
2024-05-09T01:09:57.165Z,7.97
2024-05-09T01:10:57.326Z,7.95
2024-05-09T01:11:57.214Z,7.95
2024-05-09T01:12:57.177Z,7.87
2024-05-09T01:13:57.165Z,7.83
2024-05-09T01:14:57.137Z,7.82
2024-05-09T01:15:57.125Z,7.85
2024-05-09T01:16:57.153Z,7.87
2024-05-09T01:17:57.548Z,7.80
2024-05-09T01:18:57.176Z,7.80
2024-05-09T01:19:57.150Z,7.75
2024-05-09T01:20:57.112Z,7.76
2024-05-09T01:21:57.109Z,7.79
2024-05-09T01:22:57.114Z,7.76
2024-05-09T01:23:57.065Z,7.85
2024-05-09T01:24:57.050Z,7.80
2024-05-09T01:25:57.086Z,7.77
2024-05-09T01:26:57.085Z,7.61
2024-05-09T01:27:57.093Z,7.58
2024-05-09T01:28:57.055Z,7.66
2024-05-09T01:29:57.028Z,7.58
2024-05-09T01:30:57.016Z,7.60
2024-05-09T01:31:57.132Z,7.48
2024-05-09T01:32:57.178Z,7.57
2024-05-09T01:33:57.100Z,7.67
2024-05-09T01:34:56.997Z,7.58
2024-05-09T01:35:57.020Z,7.58
2024-05-09T01:36:56.982Z,7.47
2024-05-09T01:37:57.000Z,7.58
2024-05-09T01:38:56.954Z,7.51
2024-05-09T01:39:56.941Z,7.32
2024-05-09T01:40:56.966Z,7.33
2024-05-09T01:41:56.950Z,7.35
2024-05-09T01:42:56.924Z,7.23
2024-05-09T01:43:56.948Z,7.33
2024-05-09T01:44:56.905Z,7.31
2024-05-09T01:45:56.896Z,7.32
2024-05-09T01:46:57.004Z,7.38
2024-05-09T01:47:56.985Z,7.32
2024-05-09T01:48:56.997Z,7.36
2024-05-09T01:49:56.921Z,7.31
2024-05-09T01:50:56.908Z,7.33
2024-05-09T01:51:56.855Z,7.33
2024-05-09T01:52:56.887Z,7.35
2024-05-09T01:53:56.840Z,7.36
2024-05-09T01:54:57.015Z,7.32
2024-05-09T01:55:56.910Z,7.29
2024-05-09T01:56:57.817Z,7.32
2024-05-09T01:57:56.824Z,7.25
2024-05-09T01:58:56.839Z,7.28
2024-05-09T01:59:56.810Z,7.33
2024-05-09T02:00:56.822Z,7.32
2024-05-09T02:01:57.887Z,7.28
2024-05-09T02:02:56.917Z,7.24
2024-05-09T02:03:56.944Z,7.31
2024-05-09T02:04:56.835Z,7.28
2024-05-09T02:05:56.794Z,7.17
2024-05-09T02:06:56.755Z,7.25
2024-05-09T02:07:56.766Z,7.21
2024-05-09T02:08:56.755Z,7.11
2024-05-09T02:09:56.738Z,7.05
2024-05-09T02:10:56.789Z,6.84
2024-05-09T02:11:56.813Z,6.89
2024-05-09T02:12:56.687Z,6.85
2024-05-09T02:13:56.752Z,6.95
2024-05-09T02:14:56.742Z,6.99
2024-05-09T02:15:56.671Z,6.96
2024-05-09T02:16:56.669Z,6.89
2024-05-09T02:17:57.018Z,6.92
2024-05-09T02:18:56.742Z,6.89
2024-05-09T02:19:56.673Z,6.87
2024-05-09T02:20:56.691Z,6.99
2024-05-09T02:21:56.630Z,6.92
2024-05-09T02:22:56.633Z,6.89
2024-05-09T02:23:56.630Z,7.02
2024-05-09T02:24:56.595Z,7.05
2024-05-09T02:25:56.619Z,6.97
2024-05-09T02:26:56.581Z,6.88
2024-05-09T02:27:56.602Z,6.99
2024-05-09T02:28:56.624Z,6.97
2024-05-09T02:29:56.576Z,7.03
2024-05-09T02:30:56.559Z,6.88
2024-05-09T02:31:57.675Z,7.03
2024-05-09T02:32:56.727Z,6.89
2024-05-09T02:33:56.892Z,7.03
2024-05-09T02:34:56.584Z,6.85
2024-05-09T02:35:56.528Z,6.99
2024-05-09T02:36:56.559Z,6.87
2024-05-09T02:37:56.574Z,6.84
2024-05-09T02:38:56.495Z,6.88
2024-05-09T02:39:56.480Z,6.87
2024-05-09T02:40:56.542Z,6.70
2024-05-09T02:41:56.477Z,6.84
2024-05-09T02:42:56.487Z,6.81
2024-05-09T02:43:56.505Z,6.77
2024-05-09T02:44:56.458Z,6.72
2024-05-09T02:45:57.273Z,6.78
2024-05-09T02:46:56.491Z,6.72
2024-05-09T02:47:56.726Z,6.82
2024-05-09T02:48:56.465Z,6.79
2024-05-09T02:49:56.437Z,6.78
2024-05-09T02:50:56.472Z,6.72
2024-05-09T02:51:56.429Z,6.82
2024-05-09T02:52:56.462Z,6.64
2024-05-09T02:53:56.388Z,6.69
2024-05-09T02:54:56.375Z,6.75
2024-05-09T02:55:56.405Z,6.75
2024-05-09T02:56:56.384Z,6.75
2024-05-09T02:57:56.345Z,6.64
2024-05-09T02:58:56.423Z,6.75
2024-05-09T02:59:56.342Z,6.79
2024-05-09T03:00:56.359Z,6.78
2024-05-09T03:01:56.425Z,6.74
2024-05-09T03:02:56.459Z,6.74
2024-05-09T03:03:56.479Z,6.72
2024-05-09T03:04:56.478Z,6.77
2024-05-09T03:05:56.296Z,6.70
2024-05-09T03:06:56.313Z,6.87
2024-05-09T03:07:56.325Z,6.78
2024-05-09T03:08:56.269Z,6.75
2024-05-09T03:09:56.266Z,6.75
2024-05-09T03:10:56.316Z,6.69
2024-05-09T03:11:56.322Z,6.81
2024-05-09T03:12:56.243Z,6.77
2024-05-09T03:13:56.273Z,6.66
2024-05-09T03:14:56.227Z,6.60
2024-05-09T03:15:56.252Z,6.57
2024-05-09T03:16:56.241Z,6.59
2024-05-09T03:17:56.462Z,6.59
2024-05-09T03:18:56.281Z,6.63
2024-05-09T03:19:56.243Z,6.51
2024-05-09T03:20:56.249Z,6.46
2024-05-09T03:21:56.186Z,6.57
2024-05-09T03:22:57.107Z,6.44
2024-05-09T03:23:57.198Z,6.49
2024-05-09T03:24:56.190Z,6.52
2024-05-09T03:25:56.216Z,6.48
2024-05-09T03:26:56.136Z,6.52
2024-05-09T03:27:56.137Z,6.63
2024-05-09T03:28:56.175Z,6.60
2024-05-09T03:29:56.144Z,6.63
2024-05-09T03:30:57.142Z,6.52
2024-05-09T03:31:56.218Z,6.62
2024-05-09T03:32:56.262Z,6.67
2024-05-09T03:33:56.178Z,6.60
2024-05-09T03:34:56.117Z,6.62
2024-05-09T03:35:56.075Z,6.60
2024-05-09T03:36:56.064Z,6.60
2024-05-09T03:37:56.102Z,6.64
2024-05-09T03:38:56.188Z,6.54
2024-05-09T03:39:56.071Z,6.45
2024-05-09T03:40:56.100Z,6.46
2024-05-09T03:41:56.029Z,6.56
2024-05-09T03:42:56.018Z,6.60
2024-05-09T03:43:56.039Z,6.57
2024-05-09T03:44:56.031Z,6.60
2024-05-09T03:45:55.996Z,6.75
2024-05-09T03:46:56.008Z,6.81
2024-05-09T03:47:56.198Z,6.82
2024-05-09T03:48:56.123Z,6.75
2024-05-09T03:49:56.051Z,6.89
2024-05-09T03:50:55.996Z,6.87
2024-05-09T03:51:55.949Z,6.78
2024-05-09T03:52:55.966Z,6.97
2024-05-09T03:53:55.962Z,6.99
2024-05-09T03:54:55.982Z,6.93
2024-05-09T03:55:55.947Z,6.96
2024-05-09T03:56:55.915Z,6.89
2024-05-09T03:57:55.905Z,6.84
2024-05-09T03:58:55.937Z,6.70
2024-05-09T03:59:55.891Z,6.69
2024-05-09T04:00:55.924Z,6.62
2024-05-09T04:01:56.065Z,6.60
2024-05-09T04:02:55.995Z,6.57
2024-05-09T04:03:56.008Z,6.48
2024-05-09T04:04:55.886Z,6.30
2024-05-09T04:05:55.849Z,6.33
2024-05-09T04:06:55.833Z,6.26
2024-05-09T04:07:55.911Z,6.24
2024-05-09T04:08:55.847Z,6.24
2024-05-09T04:09:56.813Z,6.26
2024-05-09T04:10:55.815Z,6.28
2024-05-09T04:11:55.964Z,6.33
2024-05-09T04:12:55.828Z,6.27
2024-05-09T04:13:55.866Z,6.24
2024-05-09T04:14:55.772Z,6.22
2024-05-09T04:15:55.767Z,6.07
2024-05-09T04:16:55.804Z,6.11
2024-05-09T04:17:56.117Z,6.08
2024-05-09T04:18:55.834Z,5.91
2024-05-09T04:19:55.748Z,6.02
2024-05-09T04:20:55.798Z,6.01
2024-05-09T04:21:55.748Z,5.98
2024-05-09T04:22:55.877Z,5.97
2024-05-09T04:23:55.700Z,6.01
2024-05-09T04:24:55.703Z,6.01
2024-05-09T04:25:55.704Z,5.98
2024-05-09T04:26:56.702Z,6.14
2024-05-09T04:27:55.766Z,6.12
2024-05-09T04:28:55.690Z,6.31
2024-05-09T04:29:55.677Z,6.16
2024-05-09T04:30:55.661Z,6.24
2024-05-09T04:31:55.746Z,6.19
2024-05-09T04:32:55.834Z,6.20
2024-05-09T04:33:55.754Z,6.22
2024-05-09T04:34:55.697Z,6.16
2024-05-09T04:35:55.630Z,6.20
2024-05-09T04:36:55.645Z,6.26
2024-05-09T04:37:55.624Z,6.17
2024-05-09T04:38:55.602Z,6.14
2024-05-09T04:39:55.598Z,6.05
2024-05-09T04:40:55.702Z,6.24
2024-05-09T04:41:55.607Z,6.20
2024-05-09T04:42:55.579Z,6.19
2024-05-09T04:43:55.590Z,6.26
2024-05-09T04:44:58.696Z,6.36
2024-05-09T04:45:56.593Z,6.38
2024-05-09T04:46:55.606Z,6.45
2024-05-09T04:47:55.827Z,6.39
2024-05-09T04:48:55.603Z,6.44
2024-05-09T04:49:55.585Z,6.56
2024-05-09T04:50:55.565Z,6.36
2024-05-09T04:51:55.496Z,6.36
2024-05-09T04:52:55.562Z,6.31
2024-05-09T04:53:55.485Z,6.26
2024-05-09T04:54:58.539Z,6.28
2024-05-09T04:55:55.549Z,6.30
2024-05-09T04:56:55.483Z,6.42
2024-05-09T04:57:55.450Z,6.31
2024-05-09T04:58:55.504Z,6.48
2024-05-09T04:59:55.464Z,6.51
2024-05-09T05:00:55.536Z,6.45
2024-05-09T05:01:55.548Z,6.54
2024-05-09T05:02:55.531Z,6.59
2024-05-09T05:03:56.235Z,6.44
2024-05-09T05:04:56.496Z,6.39
2024-05-09T05:05:55.531Z,6.38
2024-05-09T05:06:56.027Z,6.44
2024-05-09T05:07:55.404Z,6.45
2024-05-09T05:08:55.389Z,6.56
2024-05-09T05:09:55.385Z,6.56
2024-05-09T05:10:55.519Z,6.59
2024-05-09T05:11:55.661Z,6.57
2024-05-09T05:12:55.330Z,6.74
2024-05-09T05:13:55.389Z,6.70
2024-05-09T05:14:55.319Z,6.82
2024-05-09T05:15:55.502Z,6.93
2024-05-09T05:16:55.354Z,7.14
2024-05-09T05:17:55.449Z,7.21
2024-05-09T05:18:55.396Z,7.31
2024-05-09T05:19:55.373Z,7.28
2024-05-09T05:20:55.319Z,7.42
2024-05-09T05:21:55.269Z,7.48
2024-05-09T05:22:55.309Z,7.31
2024-05-09T05:23:55.272Z,7.32
2024-05-09T05:24:55.258Z,7.48
2024-05-09T05:25:55.695Z,7.39
2024-05-09T05:26:55.226Z,7.21
2024-05-09T05:27:55.304Z,7.18
2024-05-09T05:28:55.270Z,7.17
2024-05-09T05:29:55.209Z,7.35
2024-05-09T05:30:55.236Z,7.39
2024-05-09T05:31:55.305Z,7.31
2024-05-09T05:32:55.387Z,7.31
2024-05-09T05:33:55.241Z,7.39
2024-05-09T05:34:55.225Z,7.47
2024-05-09T05:35:55.157Z,7.43
2024-05-09T05:36:55.174Z,7.58
2024-05-09T05:37:55.290Z,7.60
2024-05-09T05:38:55.215Z,7.75
2024-05-09T05:39:55.138Z,7.67
2024-05-09T05:40:55.325Z,7.61
2024-05-09T05:41:56.100Z,7.76
2024-05-09T05:42:55.136Z,7.80
2024-05-09T05:43:55.136Z,7.87
2024-05-09T05:44:55.097Z,7.79
2024-05-09T05:45:55.089Z,7.77
2024-05-09T05:46:55.188Z,7.79
2024-05-09T05:47:55.426Z,7.79
2024-05-09T05:48:55.248Z,7.76
2024-05-09T05:49:55.076Z,7.72
2024-05-09T05:50:55.110Z,7.88
2024-05-09T05:51:55.071Z,7.85
2024-05-09T05:52:55.069Z,7.94
2024-05-09T05:53:55.032Z,7.85
2024-05-09T05:54:55.030Z,7.83
2024-05-09T05:55:55.114Z,7.91
2024-05-09T05:56:55.097Z,8.01
2024-05-09T05:57:55.013Z,8.01
2024-05-09T05:58:55.003Z,8.05
2024-05-09T05:59:54.997Z,8.08
2024-05-09T06:00:55.936Z,8.08
2024-05-09T06:01:55.038Z,8.20
2024-05-09T06:02:55.269Z,8.38
2024-05-09T06:03:55.100Z,8.58
2024-05-09T06:04:55.116Z,8.70
2024-05-09T06:05:55.024Z,8.74
2024-05-09T06:06:54.934Z,8.82
2024-05-09T06:07:54.976Z,8.73
2024-05-09T06:08:55.937Z,8.74
2024-05-09T06:09:54.901Z,8.71
2024-05-09T06:10:54.996Z,8.76
2024-05-09T06:11:54.956Z,9.00
2024-05-09T06:12:54.880Z,9.11
2024-05-09T06:13:54.908Z,9.23
2024-05-09T06:14:54.892Z,9.19
2024-05-09T06:15:54.891Z,9.23
2024-05-09T06:16:58.106Z,9.18
2024-05-09T06:17:55.976Z,9.02
2024-05-09T06:18:54.975Z,9.04
2024-05-09T06:19:54.999Z,9.11
2024-05-09T06:20:54.955Z,9.06
2024-05-09T06:21:54.831Z,9.11
2024-05-09T06:22:54.823Z,9.16
2024-05-09T06:23:54.794Z,9.25
2024-05-09T06:24:54.822Z,9.41
2024-05-09T06:25:54.838Z,9.44
2024-05-09T06:26:54.782Z,9.59
2024-05-09T06:27:54.767Z,9.62
2024-05-09T06:28:54.868Z,9.72
2024-05-09T06:29:54.783Z,9.82
2024-05-09T06:30:54.743Z,9.92
2024-05-09T06:31:56.525Z,9.94
2024-05-09T06:32:54.894Z,10.12
2024-05-09T06:33:54.894Z,10.17
2024-05-09T06:34:54.788Z,10.28
2024-05-09T06:35:54.705Z,10.10
2024-05-09T06:36:54.734Z,10.05
2024-05-09T06:37:54.794Z,10.09
2024-05-09T06:38:54.708Z,9.97
2024-05-09T06:39:54.701Z,10.01
2024-05-09T06:40:54.703Z,9.99
2024-05-09T06:41:54.658Z,10.13
2024-05-09T06:42:54.661Z,10.26
2024-05-09T06:43:54.701Z,10.46
2024-05-09T06:44:54.637Z,10.60
2024-05-09T06:45:54.625Z,10.35
2024-05-09T06:46:58.111Z,10.15
2024-05-09T06:47:55.838Z,9.95
2024-05-09T06:48:54.771Z,9.98
2024-05-09T06:49:54.651Z,10.02
2024-05-09T06:50:54.612Z,9.92
2024-05-09T06:51:54.587Z,9.73
2024-05-09T06:52:55.310Z,9.44
2024-05-09T06:53:54.592Z,9.59
2024-05-09T06:54:54.560Z,9.84
2024-05-09T06:55:54.607Z,10.17
2024-05-09T06:56:54.558Z,9.79
2024-05-09T06:57:54.595Z,9.55
2024-05-09T06:58:54.603Z,9.36
2024-05-09T06:59:54.520Z,9.04
2024-05-09T07:00:54.527Z,8.92
2024-05-09T07:01:54.522Z,9.11
2024-05-09T07:02:54.686Z,9.22
2024-05-09T07:03:54.627Z,9.46
2024-05-09T07:04:54.693Z,9.97
2024-05-09T07:05:54.514Z,10.30
2024-05-09T07:06:55.480Z,10.53
2024-05-09T07:07:54.568Z,10.04
2024-05-09T07:08:54.512Z,9.66
2024-05-09T07:09:54.459Z,9.56
2024-05-09T07:10:54.538Z,9.50
2024-05-09T07:11:55.574Z,9.47
2024-05-09T07:12:55.468Z,9.65
2024-05-09T07:13:54.456Z,9.92
2024-05-09T07:14:54.415Z,10.22
2024-05-09T07:15:54.423Z,10.44
2024-05-09T07:16:54.532Z,10.64
2024-05-09T07:17:54.517Z,11.02
2024-05-09T07:18:54.621Z,11.14
2024-05-09T07:19:54.404Z,11.14
2024-05-09T07:20:54.403Z,11.15
2024-05-09T07:21:54.399Z,11.29
2024-05-09T07:22:54.419Z,11.51
2024-05-09T07:23:54.447Z,11.19
2024-05-09T07:24:54.425Z,11.19
2024-05-09T07:25:54.436Z,11.26
2024-05-09T07:26:54.364Z,10.74
2024-05-09T07:27:54.316Z,11.04
2024-05-09T07:28:54.355Z,10.79
2024-05-09T07:29:54.310Z,10.72
2024-05-09T07:30:54.315Z,10.87
2024-05-09T07:31:54.338Z,11.10
2024-05-09T07:32:54.418Z,11.26
2024-05-09T07:33:54.398Z,11.63
2024-05-09T07:34:54.313Z,11.75
2024-05-09T07:35:54.283Z,11.95
2024-05-09T07:36:54.243Z,12.10
2024-05-09T07:37:54.343Z,12.32
2024-05-09T07:38:54.245Z,12.43
2024-05-09T07:39:54.258Z,12.46
2024-05-09T07:40:54.292Z,12.62
2024-05-09T07:41:54.214Z,12.65
2024-05-09T07:42:54.216Z,12.31
2024-05-09T07:43:54.208Z,12.35
2024-05-09T07:44:55.512Z,12.85
2024-05-09T07:45:56.121Z,13.09
2024-05-09T07:48:13.752Z,13.42
2024-05-09T07:49:44.190Z,13.30
2024-05-09T07:50:35.250Z,12.90
2024-05-09T07:52:38.640Z,13.16
2024-05-09T07:53:21.788Z,13.33
2024-05-09T07:53:58.265Z,13.25
2024-05-09T07:54:55.267Z,12.82
2024-05-09T07:55:54.521Z,12.78
2024-05-09T07:56:54.735Z,12.78
2024-05-09T07:57:54.117Z,12.91
2024-05-09T07:58:54.495Z,12.90
2024-05-09T07:59:54.103Z,13.33
2024-05-09T08:00:54.171Z,13.78
2024-05-09T08:01:54.099Z,13.65
2024-05-09T08:02:54.096Z,13.57
2024-05-09T08:03:54.403Z,13.79
2024-05-09T08:04:54.126Z,13.96
2024-05-09T08:05:55.097Z,13.81
2024-05-09T08:06:54.054Z,13.52
2024-05-09T08:07:54.035Z,13.35
2024-05-09T08:08:54.041Z,13.63
2024-05-09T08:09:54.032Z,13.62
2024-05-09T08:10:54.052Z,13.75
2024-05-09T08:11:54.086Z,14.07
2024-05-09T08:12:54.075Z,14.23
2024-05-09T08:13:54.002Z,13.90
2024-05-09T08:14:53.955Z,13.86
2024-05-09T08:15:53.997Z,14.28
2024-05-09T08:16:53.976Z,14.28
2024-05-09T08:17:54.023Z,14.28
2024-05-09T08:18:54.008Z,14.15
2024-05-09T08:19:53.939Z,14.23
2024-05-09T08:20:53.951Z,14.60
2024-05-09T08:21:54.052Z,14.68
2024-05-09T08:22:54.023Z,14.51
2024-05-09T08:23:53.892Z,14.60
2024-05-09T08:24:53.890Z,15.17
2024-05-09T08:25:53.872Z,15.51
2024-05-09T08:26:53.859Z,15.75
2024-05-09T08:27:53.901Z,15.94
2024-05-09T08:28:53.850Z,16.17
2024-05-09T08:29:53.950Z,16.43
2024-05-09T08:30:54.078Z,16.56
2024-05-09T08:31:53.890Z,16.68
2024-05-09T08:32:54.064Z,16.60
2024-05-09T08:33:53.883Z,16.56
2024-05-09T08:34:53.919Z,16.78
2024-05-09T08:35:53.810Z,16.24
2024-05-09T08:36:54.231Z,15.79
2024-05-09T08:37:53.880Z,15.75
2024-05-09T08:38:53.766Z,15.54
2024-05-09T08:39:53.808Z,15.57
2024-05-09T08:40:53.839Z,15.67
2024-05-09T08:41:53.782Z,15.73
2024-05-09T08:42:53.813Z,16.01
2024-05-09T08:43:53.734Z,16.43
2024-05-09T08:44:53.753Z,16.84
2024-05-09T08:45:53.754Z,17.12
2024-05-09T08:46:53.772Z,16.68
2024-05-09T08:47:53.792Z,16.69
2024-05-09T08:48:53.994Z,16.81
2024-05-09T08:49:53.836Z,16.12
2024-05-09T08:50:53.887Z,15.90
2024-05-09T08:51:53.769Z,16.26
2024-05-09T08:52:53.664Z,16.43
2024-05-09T08:53:53.657Z,16.86
2024-05-09T08:54:53.739Z,17.15
2024-05-09T08:55:53.678Z,17.22
2024-05-09T08:56:53.664Z,16.68
2024-05-09T08:57:53.709Z,16.57
2024-05-09T08:58:53.669Z,16.54
2024-05-09T08:59:53.613Z,16.66
2024-05-09T09:00:53.774Z,16.38
2024-05-09T09:01:53.751Z,16.36
2024-05-09T09:02:53.636Z,16.74
2024-05-09T09:03:53.801Z,16.79
2024-05-09T09:04:53.679Z,16.97
2024-05-09T09:05:53.665Z,16.97
2024-05-09T09:06:56.328Z,17.24
2024-05-09T09:07:53.565Z,17.02
2024-05-09T09:08:53.560Z,16.94
2024-05-09T09:09:53.611Z,16.65
2024-05-09T09:10:53.707Z,16.57
2024-05-09T09:11:53.566Z,16.75
2024-05-09T09:12:53.572Z,17.24
2024-05-09T09:13:53.523Z,17.65
2024-05-09T09:14:53.536Z,17.76
2024-05-09T09:15:53.565Z,17.80
2024-05-09T09:16:53.505Z,18.10
2024-05-09T09:17:53.570Z,18.15
2024-05-09T09:18:53.614Z,17.51
2024-05-09T09:19:53.531Z,17.51
2024-05-09T09:20:53.483Z,17.70
2024-05-09T09:21:53.517Z,17.72
2024-05-09T09:22:53.449Z,17.76
2024-05-09T09:23:53.435Z,17.57
2024-05-09T09:24:53.465Z,17.83
2024-05-09T09:25:53.462Z,17.60
2024-05-09T09:26:53.415Z,18.07
2024-05-09T09:27:53.439Z,18.44
2024-05-09T09:28:53.414Z,18.49
2024-05-09T09:29:53.381Z,18.33
2024-05-09T09:30:53.425Z,17.79
2024-05-09T09:31:53.369Z,17.57
2024-05-09T09:32:53.407Z,17.54
2024-05-09T09:33:53.656Z,17.74
2024-05-09T09:34:53.395Z,17.85
2024-05-09T09:35:53.362Z,18.01
2024-05-09T09:36:53.338Z,18.25
2024-05-09T09:37:53.323Z,18.25
2024-05-09T09:38:53.325Z,17.97
2024-05-09T09:39:53.356Z,17.78
2024-05-09T09:40:53.345Z,17.83
2024-05-09T09:41:53.308Z,17.83
2024-05-09T09:42:53.415Z,17.97
2024-05-09T09:43:53.277Z,18.01
2024-05-09T09:45:02.108Z,18.44
2024-05-09T09:45:55.454Z,18.84
2024-05-09T09:46:53.300Z,19.21
2024-05-09T09:47:53.375Z,19.54
2024-05-09T09:48:53.355Z,19.69
2024-05-09T09:49:53.297Z,19.91
2024-05-09T09:50:53.218Z,19.84
2024-05-09T09:51:53.243Z,20.11
2024-05-09T09:52:53.213Z,20.50
2024-05-09T09:53:53.226Z,20.41
2024-05-09T09:54:53.275Z,20.28
2024-05-09T09:55:53.182Z,20.02
2024-05-09T09:56:53.185Z,20.04
2024-05-09T09:57:53.192Z,20.16
2024-05-09T09:58:53.245Z,19.92
2024-05-09T09:59:53.151Z,19.63
2024-05-09T10:00:53.250Z,19.86
2024-05-09T10:01:53.265Z,19.82
2024-05-09T10:02:53.191Z,19.92
2024-05-09T10:03:53.369Z,19.91
2024-05-09T10:04:53.246Z,20.02
2024-05-09T10:05:53.144Z,20.28
2024-05-09T10:06:53.173Z,20.10
2024-05-09T10:07:53.121Z,19.99
2024-05-09T10:08:54.003Z,19.44
2024-05-09T10:09:53.155Z,19.15
2024-05-09T10:10:53.271Z,19.45
2024-05-09T10:11:59.693Z,19.74
2024-05-09T10:12:54.131Z,19.91
2024-05-09T10:13:53.061Z,19.94
2024-05-09T10:14:53.053Z,19.63
2024-05-09T10:15:54.584Z,19.52
2024-05-09T10:16:53.030Z,19.04
2024-05-09T10:17:53.326Z,18.88
2024-05-09T10:18:53.177Z,18.95
2024-05-09T10:19:53.111Z,19.14
2024-05-09T10:20:53.091Z,19.27
2024-05-09T10:21:53.078Z,19.56
2024-05-09T10:22:53.006Z,19.99
2024-05-09T10:23:52.963Z,20.44
2024-05-09T10:24:53.108Z,20.70
2024-05-09T10:25:53.010Z,20.87
2024-05-09T10:26:53.028Z,20.85
2024-05-09T10:27:53.183Z,20.75
2024-05-09T10:28:52.929Z,20.50
2024-05-09T10:29:53.924Z,20.51
2024-05-09T10:30:52.959Z,19.92
2024-05-09T10:31:53.018Z,19.37
2024-05-09T10:32:53.062Z,19.67
2024-05-09T10:33:53.407Z,19.81
2024-05-09T10:34:53.069Z,19.89
2024-05-09T10:35:52.894Z,19.79
2024-05-09T10:36:53.909Z,18.62
2024-05-09T10:37:52.924Z,18.43
2024-05-09T10:38:52.920Z,18.62
2024-05-09T10:39:52.882Z,18.65
2024-05-09T10:40:52.913Z,19.22
2024-05-09T10:41:53.794Z,19.34
2024-05-09T10:42:53.004Z,19.39
2024-05-09T10:43:52.827Z,19.94
2024-05-09T10:44:52.838Z,20.62
2024-05-09T10:45:54.205Z,20.48
2024-05-09T10:46:52.923Z,19.84
2024-05-09T10:47:52.917Z,19.74
2024-05-09T10:48:52.859Z,19.51
2024-05-09T10:49:52.902Z,19.37
2024-05-09T10:50:52.788Z,19.74
2024-05-09T10:51:52.804Z,20.13
2024-05-09T10:52:52.744Z,20.34
2024-05-09T10:53:52.776Z,20.80
2024-05-09T10:54:52.828Z,20.81
2024-05-09T10:55:52.764Z,20.78
2024-05-09T10:56:52.710Z,20.74
2024-05-09T10:57:52.707Z,20.58
2024-05-09T10:58:52.722Z,20.80
2024-05-09T10:59:52.687Z,20.29
2024-05-09T11:00:52.786Z,19.88
2024-05-09T11:01:52.694Z,19.37
2024-05-09T11:02:52.744Z,19.39
2024-05-09T11:03:52.878Z,19.70
2024-05-09T11:04:52.875Z,19.74
2024-05-09T11:05:52.759Z,19.70
2024-05-09T11:06:52.655Z,19.49
2024-05-09T11:07:52.624Z,19.49
2024-05-09T11:08:52.610Z,19.40
2024-05-09T11:09:52.686Z,19.22
2024-05-09T11:10:52.763Z,19.14
2024-05-09T11:11:52.684Z,19.24
2024-05-09T11:12:52.767Z,19.79
2024-05-09T11:13:52.589Z,20.29
2024-05-09T11:14:52.606Z,19.95
2024-05-09T11:15:52.584Z,20.22
2024-05-09T11:16:52.560Z,20.09
2024-05-09T11:17:52.742Z,20.24
2024-05-09T11:18:52.839Z,20.74
2024-05-09T11:19:52.736Z,20.88
2024-05-09T11:20:52.530Z,20.74
2024-05-09T11:21:52.622Z,20.77
2024-05-09T11:22:52.509Z,21.17
2024-05-09T11:23:52.525Z,21.45
2024-05-09T11:24:53.577Z,21.57
2024-05-09T11:25:52.492Z,21.22
2024-05-09T11:26:52.484Z,21.03
2024-05-09T11:27:52.506Z,20.92
2024-05-09T11:28:52.487Z,20.72
2024-05-09T11:29:52.459Z,20.62
2024-05-09T11:30:52.494Z,20.43
2024-05-09T11:31:52.469Z,20.03
2024-05-09T11:32:52.490Z,19.31
2024-05-09T11:33:53.528Z,18.90
2024-05-09T11:34:52.410Z,19.00
2024-05-09T11:35:52.400Z,19.19
2024-05-09T11:36:52.435Z,19.19
2024-05-09T11:37:52.415Z,19.02
2024-05-09T11:38:52.423Z,18.99
2024-05-09T11:39:52.407Z,19.29
2024-05-09T11:40:52.460Z,19.36
2024-05-09T11:41:52.359Z,19.29
2024-05-09T11:42:53.491Z,19.56
2024-05-09T11:43:53.364Z,19.63
2024-05-09T11:44:52.338Z,19.37
2024-05-09T11:45:52.348Z,19.62
2024-05-09T11:46:52.407Z,19.89
2024-05-09T11:47:52.435Z,19.91
2024-05-09T11:48:52.438Z,19.91
2024-05-09T11:49:52.334Z,19.99
2024-05-09T11:50:52.303Z,20.09
2024-05-09T11:51:52.320Z,20.51
2024-05-09T11:52:52.305Z,20.50
2024-05-09T11:53:52.345Z,20.29
2024-05-09T11:54:52.307Z,19.96
2024-05-09T11:55:52.245Z,19.92
2024-05-09T11:56:52.249Z,20.04
2024-05-09T11:57:52.283Z,20.32
2024-05-09T11:58:52.237Z,20.34
2024-05-09T11:59:52.226Z,20.47
2024-05-09T12:00:52.307Z,20.82
2024-05-09T12:01:52.322Z,20.67
2024-05-09T12:02:52.249Z,20.50
2024-05-09T12:03:52.449Z,20.77
2024-05-09T12:04:52.284Z,20.58
2024-05-09T12:05:52.306Z,20.14
2024-05-09T12:06:52.217Z,19.88
2024-05-09T12:07:52.164Z,19.77
2024-05-09T12:08:52.156Z,19.82
2024-05-09T12:09:52.157Z,20.40
2024-05-09T12:10:52.221Z,20.69
2024-05-09T12:11:52.168Z,20.93
2024-05-09T12:12:52.143Z,20.95
2024-05-09T12:13:52.114Z,21.18
2024-05-09T12:14:52.105Z,21.46
2024-05-09T12:15:52.145Z,21.64
2024-05-09T12:16:52.157Z,21.35
2024-05-09T12:17:52.693Z,20.99
2024-05-09T12:18:52.213Z,20.52
2024-05-09T12:19:52.067Z,20.40
2024-05-09T12:20:52.064Z,20.43
2024-05-09T12:21:52.108Z,20.47
2024-05-09T12:22:52.036Z,20.66
2024-05-09T12:23:53.069Z,20.60
2024-05-09T12:24:52.081Z,20.72
2024-05-09T12:25:52.075Z,20.51
2024-05-09T12:26:52.031Z,20.31
2024-05-09T12:27:53.049Z,20.04
2024-05-09T12:28:52.000Z,20.02
2024-05-09T12:29:51.986Z,20.48
2024-05-09T12:30:52.026Z,20.77
2024-05-09T12:31:52.033Z,20.85
2024-05-09T12:32:53.271Z,20.87
2024-05-09T12:33:52.043Z,21.03
2024-05-09T12:34:51.969Z,21.21
2024-05-09T12:35:51.972Z,21.22
2024-05-09T12:36:52.013Z,21.21
2024-05-09T12:37:51.930Z,20.40
2024-05-09T12:38:51.926Z,20.29
2024-05-09T12:39:51.997Z,20.10
2024-05-09T12:40:52.362Z,20.02
2024-05-09T12:41:51.908Z,19.84
2024-05-09T12:42:51.954Z,19.74
2024-05-09T12:43:51.883Z,19.39
2024-05-09T12:44:52.832Z,19.26
2024-05-09T12:45:52.819Z,19.36
2024-05-09T12:46:51.866Z,19.51
2024-05-09T12:47:51.937Z,19.77
2024-05-09T12:48:52.083Z,19.95
2024-05-09T12:49:53.216Z,20.41
2024-05-09T12:50:51.933Z,20.55
2024-05-09T12:51:51.878Z,20.67
2024-05-09T12:52:51.816Z,20.44
2024-05-09T12:53:51.808Z,20.51
2024-05-09T12:54:51.844Z,20.52
2024-05-09T12:55:56.908Z,20.65
2024-05-09T12:56:53.800Z,20.97
2024-05-09T12:57:51.819Z,21.17
2024-05-09T12:58:51.779Z,21.32
2024-05-09T12:59:51.797Z,21.21
2024-05-09T13:00:52.059Z,21.15
2024-05-09T13:01:51.897Z,20.92
2024-05-09T13:02:51.759Z,20.04
2024-05-09T13:03:52.097Z,19.63
2024-05-09T13:04:51.871Z,19.74
2024-05-09T13:05:51.834Z,19.81
2024-05-09T13:06:51.747Z,19.81
2024-05-09T13:07:51.725Z,19.39
2024-05-09T13:08:51.774Z,19.41